Station Historical Data
Daily Summary for December 6, 2017 Units:  Both    English   Metric
Next Day »
Daily Weekly Monthly Yearly Custom
  High: Low: Average:
Temperature: 55.4 °F /  13 °C 38.6 °F /  3.7 °C 46.9 °F /  8.3 °C
Dew Point: 40.3 °F /  4.6 °C 20.5 °F /  -6.4 °C 28.3 °F /  -2.1 °C
Humidity: 73% 29% 50%
Wind Speed: 14.0mph /  22.5km/h - 1.2mph /  1.9km/h
Wind Gust: 28.0mph /  45.1km/h - -
Wind- - ESE
Pressure: 30.42 in /  1030 hPa 30.30 in /  1026 hPa -
Precipitation: 0.00 in /  0 mm    
Historical Graphs
 
 
Tabular Data for December 6, 2017
Time Temperature Dew Point Pressure Wind Wind Speed Wind Gust Humidity Rainfall Rate (Hourly) solar Conditions
00:04 40.4 °F /  4.7 °C 31.8 °F /  -0.1 °C 30.31in /  1026.3hPa Calm     71% 0.00in /  0mm 0.00 W/m2
00:09 40.4 °F /  4.7 °C 32.4 °F /  0.2 °C 30.31in /  1026.3hPa Calm     73% 0.00in /  0mm 0.00 W/m2
00:14 40.3 °F /  4.6 °C 31.7 °F /  -0.2 °C 30.31in /  1026.3hPa Calm     71% 0.00in /  0mm 0.00 W/m2
00:15 40.4 °F /  4.7 °C 31.8 °F /  -0.1 °C 30.31in /  1026.3hPa Calm     71% 0.00in /  0mm 0.00 W/m2
00:20 40.3 °F /  4.6 °C 31.7 °F /  -0.2 °C 30.30in /  1026hPa Calm     71% 0.00in /  0mm 0.00 W/m2
00:25 40.2 °F /  4.6 °C 31.2 °F /  -0.4 °C 30.30in /  1026hPa Calm     70% 0.00in /  0mm 0.00 W/m2
00:30 40.1 °F /  4.5 °C 31.5 °F /  -0.3 °C 30.30in /  1026hPa Calm     71% 0.00in /  0mm 0.00 W/m2
00:35 40.1 °F /  4.5 °C 32.2 °F /  0.1 °C 30.30in /  1026hPa Calm     73% 0.00in /  0mm 0.00 W/m2
00:40 40.1 °F /  4.5 °C 31.5 °F /  -0.3 °C 30.30in /  1026hPa Calm     71% 0.00in /  0mm 0.00 W/m2
00:45 40.0 °F /  4.4 °C 31.7 °F /  -0.2 °C 30.30in /  1026hPa Calm     72% 0.00in /  0mm 0.00 W/m2
00:50 39.9 °F /  4.4 °C 30.9 °F /  -0.6 °C 30.30in /  1026hPa Calm     70% 0.00in /  0mm 0.00 W/m2
00:55 39.9 °F /  4.4 °C 30.9 °F /  -0.6 °C 30.31in /  1026.3hPa Calm     70% 0.00in /  0mm 0.00 W/m2
01:00 39.8 °F /  4.3 °C 30.5 °F /  -0.8 °C 30.31in /  1026.3hPa Calm     69% 0.00in /  0mm 0.00 W/m2
01:05 39.8 °F /  4.3 °C 30.5 °F /  -0.8 °C 30.31in /  1026.3hPa Calm     69% 0.00in /  0mm 0.00 W/m2
01:10 39.7 °F /  4.3 °C 30.4 °F /  -0.9 °C 30.31in /  1026.3hPa Calm     69% 0.00in /  0mm 0.00 W/m2
01:15 39.6 °F /  4.2 °C 29.9 °F /  -1.2 °C 30.31in /  1026.3hPa Calm     68% 0.00in /  0mm 0.00 W/m2
01:20 39.6 °F /  4.2 °C 29.6 °F /  -1.3 °C 30.31in /  1026.3hPa Calm     67% 0.00in /  0mm 0.00 W/m2
01:25 39.5 °F /  4.2 °C 29.1 °F /  -1.6 °C 30.31in /  1026.3hPa Calm     66% 0.00in /  0mm 0.00 W/m2
01:30 39.5 °F /  4.2 °C 29.5 °F /  -1.4 °C 30.31in /  1026.3hPa Calm     67% 0.00in /  0mm 0.00 W/m2
01:35 39.5 °F /  4.2 °C 29.5 °F /  -1.4 °C 30.31in /  1026.3hPa Calm     67% 0.00in /  0mm 0.00 W/m2
01:40 39.4 °F /  4.1 °C 28.2 °F /  -2.1 °C 30.31in /  1026.3hPa Calm     64% 0.00in /  0mm 0.00 W/m2
01:45 39.3 °F /  4.1 °C 28.5 °F /  -1.9 °C 30.31in /  1026.3hPa Calm     65% 0.00in /  0mm 0.00 W/m2
01:50 39.3 °F /  4.1 °C 27.8 °F /  -2.3 °C 30.31in /  1026.3hPa Calm     63% 0.00in /  0mm 0.00 W/m2
01:55 39.3 °F /  4.1 °C 28.2 °F /  -2.1 °C 30.31in /  1026.3hPa Calm     64% 0.00in /  0mm 0.00 W/m2
02:00 39.4 °F /  4.1 °C 28.2 °F /  -2.1 °C 30.31in /  1026.3hPa Calm     64% 0.00in /  0mm 0.00 W/m2
02:01 39.3 °F /  4.1 °C 28.2 °F /  -2.1 °C 30.31in /  1026.3hPa Calm     64% 0.00in /  0mm 0.00 W/m2
02:06 39.3 °F /  4.1 °C 27.8 °F /  -2.3 °C 30.31in /  1026.3hPa Calm     63% 0.00in /  0mm 0.00 W/m2
02:11 39.3 °F /  4.1 °C 27.4 °F /  -2.6 °C 30.32in /  1026.6hPa Calm     62% 0.00in /  0mm 0.00 W/m2
02:16 39.2 °F /  4 °C 27.3 °F /  -2.6 °C 30.31in /  1026.3hPa Calm     62% 0.00in /  0mm 0.00 W/m2
02:21 39.2 °F /  4 °C 27.7 °F /  -2.4 °C 30.31in /  1026.3hPa Calm     63% 0.00in /  0mm 0.00 W/m2
02:26 39.2 °F /  4 °C 27.3 °F /  -2.6 °C 30.31in /  1026.3hPa Calm     62% 0.00in /  0mm 0.00 W/m2
02:31 39.2 °F /  4 °C 28.1 °F /  -2.2 °C 30.31in /  1026.3hPa Calm     64% 0.00in /  0mm 0.00 W/m2
02:36 39.2 °F /  4 °C 27.3 °F /  -2.6 °C 30.31in /  1026.3hPa Calm     62% 0.00in /  0mm 0.00 W/m2
02:41 39.1 °F /  3.9 °C 27.6 °F /  -2.4 °C 30.31in /  1026.3hPa Calm     63% 0.00in /  0mm 0.00 W/m2
02:46 39.1 °F /  3.9 °C 27.2 °F /  -2.7 °C 30.32in /  1026.6hPa Calm     62% 0.00in /  0mm 0.00 W/m2
02:51 39.0 °F /  3.9 °C 27.1 °F /  -2.7 °C 30.32in /  1026.6hPa Calm     62% 0.00in /  0mm 0.00 W/m2
02:56 39.0 °F /  3.9 °C 27.5 °F /  -2.5 °C 30.31in /  1026.3hPa Calm     63% 0.00in /  0mm 0.00 W/m2
03:01 38.9 °F /  3.8 °C 27.0 °F /  -2.8 °C 30.32in /  1026.6hPa Calm     62% 0.00in /  0mm 0.00 W/m2
03:06 38.9 °F /  3.8 °C 27.0 °F /  -2.8 °C 30.31in /  1026.3hPa Calm     62% 0.00in /  0mm 0.00 W/m2
03:12 38.9 °F /  3.8 °C 27.0 °F /  -2.8 °C 30.31in /  1026.3hPa Calm     62% 0.00in /  0mm 0.00 W/m2
03:17 38.9 °F /  3.8 °C 26.2 °F /  -3.2 °C 30.32in /  1026.6hPa Calm     60% 0.00in /  0mm 0.00 W/m2
03:22 38.9 °F /  3.8 °C 26.2 °F /  -3.2 °C 30.32in /  1026.6hPa Calm     60% 0.00in /  0mm 0.00 W/m2
03:27 39.0 °F /  3.9 °C 25.9 °F /  -3.4 °C 30.32in /  1026.6hPa Calm     59% 0.00in /  0mm 0.00 W/m2
03:32 39.0 °F /  3.9 °C 26.3 °F /  -3.2 °C 30.31in /  1026.3hPa Calm     60% 0.00in /  0mm 0.00 W/m2
03:37 39.1 °F /  3.9 °C 26.8 °F /  -2.9 °C 30.31in /  1026.3hPa Calm     61% 0.00in /  0mm 0.00 W/m2
03:42 39.1 °F /  3.9 °C 27.2 °F /  -2.7 °C 30.31in /  1026.3hPa Calm     62% 0.00in /  0mm 0.00 W/m2
03:47 39.1 °F /  3.9 °C 28.0 °F /  -2.2 °C 30.30in /  1026hPa Calm     64% 0.00in /  0mm 0.00 W/m2
03:57 39.2 °F /  4 °C 28.1 °F /  -2.2 °C 30.31in /  1026.3hPa Calm     64% 0.00in /  0mm 0.00 W/m2
04:02 39.3 °F /  4.1 °C 27.0 °F /  -2.8 °C 30.31in /  1026.3hPa Calm     61% 0.00in /  0mm 0.00 W/m2
04:07 39.3 °F /  4.1 °C 27.0 °F /  -2.8 °C 30.31in /  1026.3hPa Calm     61% 0.00in /  0mm 0.00 W/m2
04:12 39.4 °F /  4.1 °C 27.5 °F /  -2.5 °C 30.31in /  1026.3hPa Calm     62% 0.00in /  0mm 0.00 W/m2
04:17 39.4 °F /  4.1 °C 27.1 °F /  -2.7 °C 30.31in /  1026.3hPa Calm     61% 0.00in /  0mm 0.00 W/m2
04:22 39.4 °F /  4.1 °C 27.5 °F /  -2.5 °C 30.32in /  1026.6hPa Calm     62% 0.00in /  0mm 0.00 W/m2
04:27 39.4 °F /  4.1 °C 27.9 °F /  -2.3 °C 30.32in /  1026.6hPa Calm     63% 0.00in /  0mm 0.00 W/m2
04:32 39.3 °F /  4.1 °C 27.0 °F /  -2.8 °C 30.32in /  1026.6hPa Calm     61% 0.00in /  0mm 0.00 W/m2
04:37 39.4 °F /  4.1 °C 27.9 °F /  -2.3 °C 30.32in /  1026.6hPa Calm     63% 0.00in /  0mm 0.00 W/m2
04:42 39.3 °F /  4.1 °C 27.8 °F /  -2.3 °C 30.32in /  1026.6hPa Calm     63% 0.00in /  0mm 0.00 W/m2
04:47 39.3 °F /  4.1 °C 27.4 °F /  -2.6 °C 30.32in /  1026.6hPa Calm     62% 0.00in /  0mm 0.00 W/m2
04:57 39.2 °F /  4 °C 26.1 °F /  -3.3 °C 30.32in /  1026.6hPa Calm     59% 0.00in /  0mm 0.00 W/m2
05:02 39.2 °F /  4 °C 26.5 °F /  -3.1 °C 30.32in /  1026.6hPa Calm     60% 0.00in /  0mm 0.00 W/m2
05:07 39.2 °F /  4 °C 27.3 °F /  -2.6 °C 30.32in /  1026.6hPa Calm     62% 0.00in /  0mm 0.00 W/m2
05:12 39.1 °F /  3.9 °C 26.0 °F /  -3.3 °C 30.32in /  1026.6hPa Calm     59% 0.00in /  0mm 0.00 W/m2
05:17 39.1 °F /  3.9 °C 26.0 °F /  -3.3 °C 30.32in /  1026.6hPa Calm     59% 0.00in /  0mm 0.00 W/m2
05:27 39.1 °F /  3.9 °C 25.6 °F /  -3.6 °C 30.32in /  1026.6hPa Calm     58% 0.00in /  0mm 0.00 W/m2
05:32 39.0 °F /  3.9 °C 25.9 °F /  -3.4 °C 30.32in /  1026.6hPa Calm     59% 0.00in /  0mm 0.00 W/m2
05:37 39.0 °F /  3.9 °C 26.7 °F /  -2.9 °C 30.32in /  1026.6hPa Calm     61% 0.00in /  0mm 0.00 W/m2
05:42 39.0 °F /  3.9 °C 25.9 °F /  -3.4 °C 30.33in /  1027hPa Calm     59% 0.00in /  0mm 0.00 W/m2
05:48 38.9 °F /  3.8 °C 27.0 °F /  -2.8 °C 30.32in /  1026.6hPa Calm     62% 0.00in /  0mm 0.00 W/m2
05:53 38.9 °F /  3.8 °C 26.6 °F /  -3 °C 30.32in /  1026.6hPa Calm     61% 0.00in /  0mm 0.00 W/m2
05:58 38.9 °F /  3.8 °C 26.6 °F /  -3 °C 30.33in /  1027hPa Calm     61% 0.00in /  0mm 0.00 W/m2
06:03 38.9 °F /  3.8 °C 25.8 °F /  -3.4 °C 30.33in /  1027hPa Calm     59% 0.00in /  0mm 0.00 W/m2
06:08 38.9 °F /  3.8 °C 26.6 °F /  -3 °C 30.33in /  1027hPa Calm     61% 0.00in /  0mm 0.00 W/m2
06:13 38.9 °F /  3.8 °C 26.6 °F /  -3 °C 30.33in /  1027hPa Calm     61% 0.00in /  0mm 0.00 W/m2
06:18 38.8 °F /  3.8 °C 26.5 °F /  -3.1 °C 30.33in /  1027hPa Calm     61% 0.00in /  0mm 0.00 W/m2
06:23 38.8 °F /  3.8 °C 26.1 °F /  -3.3 °C 30.33in /  1027hPa Calm     60% 0.00in /  0mm 0.00 W/m2
06:28 38.8 °F /  3.8 °C 26.5 °F /  -3.1 °C 30.33in /  1027hPa Calm     61% 0.00in /  0mm 0.00 W/m2
06:33 38.8 °F /  3.8 °C 26.5 °F /  -3.1 °C 30.33in /  1027hPa Calm     61% 0.00in /  0mm 0.00 W/m2
06:34 38.8 °F /  3.8 °C 26.1 °F /  -3.3 °C 30.33in /  1027hPa Calm     60% 0.00in /  0mm 0.00 W/m2
06:39 38.8 °F /  3.8 °C 26.5 °F /  -3.1 °C 30.34in /  1027.3hPa Calm     61% 0.00in /  0mm 0.00 W/m2
06:44 38.8 °F /  3.8 °C 26.1 °F /  -3.3 °C 30.34in /  1027.3hPa Calm     60% 0.00in /  0mm 0.00 W/m2
06:49 38.8 °F /  3.8 °C 26.1 °F /  -3.3 °C 30.34in /  1027.3hPa Calm     60% 0.00in /  0mm 0.00 W/m2
06:54 38.8 °F /  3.8 °C 26.1 °F /  -3.3 °C 30.34in /  1027.3hPa Calm     60% 0.00in /  0mm 0.00 W/m2
06:59 38.7 °F /  3.7 °C 26.4 °F /  -3.1 °C 30.34in /  1027.3hPa Calm     61% 0.00in /  0mm 0.00 W/m2
07:04 38.7 °F /  3.7 °C 26.4 °F /  -3.1 °C 30.34in /  1027.3hPa Calm     61% 0.00in /  0mm 5.00 W/m2
07:09 38.6 °F /  3.7 °C 26.3 °F /  -3.2 °C 30.34in /  1027.3hPa Calm     61% 0.00in /  0mm 7.00 W/m2
07:10 38.6 °F /  3.7 °C 26.3 °F /  -3.2 °C 30.34in /  1027.3hPa Calm     61% 0.00in /  0mm 7.00 W/m2
07:20 38.6 °F /  3.7 °C 25.9 °F /  -3.4 °C 30.34in /  1027.3hPa Calm     60% 0.00in /  0mm 12.00 W/m2
07:25 38.6 °F /  3.7 °C 26.7 °F /  -2.9 °C 30.34in /  1027.3hPa Calm     62% 0.00in /  0mm 14.00 W/m2
07:30 38.6 °F /  3.7 °C 26.3 °F /  -3.2 °C 30.35in /  1027.7hPa Calm     61% 0.00in /  0mm 18.00 W/m2
07:35 38.7 °F /  3.7 °C 27.2 °F /  -2.7 °C 30.35in /  1027.7hPa Calm     63% 0.00in /  0mm 23.00 W/m2
07:40 38.7 °F /  3.7 °C 26.4 °F /  -3.1 °C 30.35in /  1027.7hPa Calm     61% 0.00in /  0mm 33.00 W/m2
07:45 38.8 °F /  3.8 °C 26.5 °F /  -3.1 °C 30.35in /  1027.7hPa Calm     61% 0.00in /  0mm 26.00 W/m2
07:50 39.0 °F /  3.9 °C 27.1 °F /  -2.7 °C 30.35in /  1027.7hPa Calm     62% 0.00in /  0mm 60.00 W/m2
07:55 39.1 °F /  3.9 °C 26.4 °F /  -3.1 °C 30.35in /  1027.7hPa Calm     60% 0.00in /  0mm 76.00 W/m2
08:00 39.2 °F /  4 °C 26.5 °F /  -3.1 °C 30.35in /  1027.7hPa Calm     60% 0.00in /  0mm 90.00 W/m2
08:05 39.4 °F /  4.1 °C 26.7 °F /  -2.9 °C 30.35in /  1027.7hPa Calm     60% 0.00in /  0mm 105.00 W/m2
08:10 39.5 °F /  4.2 °C 26.8 °F /  -2.9 °C 30.36in /  1028hPa Calm     60% 0.00in /  0mm 121.00 W/m2
08:15 39.7 °F /  4.3 °C 26.6 °F /  -3 °C 30.36in /  1028hPa Calm     59% 0.00in /  0mm 135.00 W/m2
08:20 40.0 °F /  4.4 °C 25.6 °F /  -3.6 °C 30.36in /  1028hPa Calm     56% 0.00in /  0mm 153.00 W/m2
08:25 40.2 °F /  4.6 °C 26.2 °F /  -3.2 °C 30.36in /  1028hPa Calm     57% 0.00in /  0mm 169.00 W/m2
08:30 40.4 °F /  4.7 °C 27.2 °F /  -2.7 °C 30.36in /  1028hPa Calm     59% 0.00in /  0mm 188.00 W/m2
08:35 40.5 °F /  4.7 °C 26.0 °F /  -3.3 °C 30.36in /  1028hPa Calm     56% 0.00in /  0mm 207.00 W/m2
08:40 40.7 °F /  4.8 °C 27.5 °F /  -2.5 °C 30.37in /  1028.3hPa Calm     59% 0.00in /  0mm 225.00 W/m2
08:45 40.8 °F /  4.9 °C 27.2 °F /  -2.7 °C 30.37in /  1028.3hPa Calm     58% 0.00in /  0mm 243.00 W/m2
08:51 41.0 °F /  5 °C 27.4 °F /  -2.6 °C 30.37in /  1028.3hPa Calm     58% 0.00in /  0mm 258.00 W/m2
08:56 41.2 °F /  5.1 °C 27.1 °F /  -2.7 °C 30.37in /  1028.3hPa Calm     57% 0.00in /  0mm 276.00 W/m2
09:01 41.4 °F /  5.2 °C 26.9 °F /  -2.8 °C 30.37in /  1028.3hPa Calm     56% 0.00in /  0mm 294.00 W/m2
09:06 41.5 °F /  5.3 °C 27.8 °F /  -2.3 °C 30.37in /  1028.3hPa Calm     58% 0.00in /  0mm 304.00 W/m2
09:11 41.8 °F /  5.4 °C 27.3 °F /  -2.6 °C 30.37in /  1028.3hPa SE 1.0mph /  1.6km/h 2.0mph /  3.2km/h 56% 0.00in /  0mm 318.00 W/m2
09:16 42.2 °F /  5.7 °C 29.7 °F /  -1.3 °C 30.37in /  1028.3hPa Calm     61% 0.00in /  0mm 334.00 W/m2
09:21 42.5 °F /  5.8 °C 30.0 °F /  -1.1 °C 30.37in /  1028.3hPa Calm     61% 0.00in /  0mm 345.00 W/m2
09:26 42.8 °F /  6 °C 29.9 °F /  -1.2 °C 30.38in /  1028.7hPa Calm     60% 0.00in /  0mm 355.00 W/m2
09:31 43.1 °F /  6.2 °C 30.6 °F /  -0.8 °C 30.38in /  1028.7hPa Calm     61% 0.00in /  0mm 366.00 W/m2
09:36 43.4 °F /  6.3 °C 32.0 °F /  0 °C 30.38in /  1028.7hPa Calm     64% 0.00in /  0mm 378.00 W/m2
09:41 43.7 °F /  6.5 °C 30.7 °F /  -0.7 °C 30.38in /  1028.7hPa Calm     60% 0.00in /  0mm 388.00 W/m2
09:51 44.3 °F /  6.8 °C 30.0 °F /  -1.1 °C 30.38in /  1028.7hPa Calm     57% 0.00in /  0mm 406.00 W/m2
09:56 44.7 °F /  7.1 °C 30.9 °F /  -0.6 °C 30.39in /  1029hPa Calm     58% 0.00in /  0mm 415.00 W/m2
10:01 45.1 °F /  7.3 °C 29.5 °F /  -1.4 °C 30.39in /  1029hPa Calm     54% 0.00in /  0mm 424.00 W/m2
10:06 45.4 °F /  7.4 °C 30.2 °F /  -1 °C 30.39in /  1029hPa Calm     55% 0.00in /  0mm 432.00 W/m2
10:11 45.8 °F /  7.7 °C 29.7 °F /  -1.3 °C 30.39in /  1029hPa Calm     53% 0.00in /  0mm 439.00 W/m2
10:16 46.2 °F /  7.9 °C 29.6 °F /  -1.3 °C 30.39in /  1029hPa Calm   1.0mph /  1.6km/h 52% 0.00in /  0mm 448.00 W/m2
10:21 46.5 °F /  8.1 °C 26.3 °F /  -3.2 °C 30.39in /  1029hPa Calm     45% 0.00in /  0mm 455.00 W/m2
10:26 47.0 °F /  8.3 °C 28.9 °F /  -1.7 °C 30.39in /  1029hPa Calm     49% 0.00in /  0mm 461.00 W/m2
10:31 47.3 °F /  8.5 °C 27.6 °F /  -2.4 °C 30.39in /  1029hPa Calm     46% 0.00in /  0mm 468.00 W/m2
10:36 47.7 °F /  8.7 °C 26.3 °F /  -3.2 °C 30.39in /  1029hPa Calm     43% 0.00in /  0mm 475.00 W/m2
10:41 48.1 °F /  8.9 °C 29.4 °F /  -1.4 °C 30.39in /  1029hPa Calm     48% 0.00in /  0mm 480.00 W/m2
10:46 48.3 °F /  9.1 °C 28.0 °F /  -2.2 °C 30.39in /  1029hPa Calm     45% 0.00in /  0mm 485.00 W/m2
10:51 48.6 °F /  9.2 °C 27.7 °F /  -2.4 °C 30.39in /  1029hPa Calm     44% 0.00in /  0mm 490.00 W/m2
10:56 48.7 °F /  9.3 °C 28.9 °F /  -1.7 °C 30.38in /  1028.7hPa Calm     46% 0.00in /  0mm 494.00 W/m2
11:01 49.1 °F /  9.5 °C 27.0 °F /  -2.8 °C 30.38in /  1028.7hPa Calm     42% 0.00in /  0mm 496.00 W/m2
11:06 49.5 °F /  9.7 °C 27.4 °F /  -2.6 °C 30.38in /  1028.7hPa Calm     42% 0.00in /  0mm 501.00 W/m2
11:11 49.9 °F /  9.9 °C 29.4 °F /  -1.4 °C 30.38in /  1028.7hPa Calm     45% 0.00in /  0mm 503.00 W/m2
11:16 50.0 °F /  10 °C 29.5 °F /  -1.4 °C 30.38in /  1028.7hPa Calm     45% 0.00in /  0mm 506.00 W/m2
11:21 50.2 °F /  10.1 °C 29.1 °F /  -1.6 °C 30.37in /  1028.3hPa Calm     44% 0.00in /  0mm 510.00 W/m2
11:26 50.4 °F /  10.2 °C 31.0 °F /  -0.6 °C 30.37in /  1028.3hPa Calm     47% 0.00in /  0mm 512.00 W/m2
11:31 50.5 °F /  10.3 °C 29.4 °F /  -1.4 °C 30.37in /  1028.3hPa Calm     44% 0.00in /  0mm 513.00 W/m2
11:36 50.6 °F /  10.3 °C 30.1 °F /  -1.1 °C 30.37in /  1028.3hPa Calm     45% 0.00in /  0mm 515.00 W/m2
11:41 50.9 °F /  10.5 °C 29.8 °F /  -1.2 °C 30.37in /  1028.3hPa Calm     44% 0.00in /  0mm 515.00 W/m2
11:46 51.2 °F /  10.7 °C 30.6 °F /  -0.8 °C 30.37in /  1028.3hPa Calm     45% 0.00in /  0mm 517.00 W/m2
11:51 51.8 °F /  11 °C 31.7 °F /  -0.2 °C 30.36in /  1028hPa Calm     46% 0.00in /  0mm 515.00 W/m2
11:56 52.0 °F /  11.1 °C 31.3 °F /  -0.4 °C 30.36in /  1028hPa Calm     45% 0.00in /  0mm 517.00 W/m2
11:58 52.0 °F /  11.1 °C 31.3 °F /  -0.4 °C 30.36in /  1028hPa Calm     45% 0.00in /  0mm 515.00 W/m2
12:03 52.2 °F /  11.2 °C 32.1 °F /  0.1 °C 30.36in /  1028hPa Calm     46% 0.00in /  0mm 515.00 W/m2
12:08 52.4 °F /  11.3 °C 32.8 °F /  0.4 °C 30.36in /  1028hPa Calm     47% 0.00in /  0mm 513.00 W/m2
12:13 52.5 °F /  11.4 °C 32.3 °F /  0.2 °C 30.35in /  1027.7hPa Calm     46% 0.00in /  0mm 512.00 W/m2
12:18 52.6 °F /  11.4 °C 31.9 °F /  -0.1 °C 30.35in /  1027.7hPa Calm   2.0mph /  3.2km/h 45% 0.00in /  0mm 512.00 W/m2
12:23 52.8 °F /  11.6 °C 33.2 °F /  0.7 °C 30.35in /  1027.7hPa Calm     47% 0.00in /  0mm 508.00 W/m2
12:28 53.0 °F /  11.7 °C 32.2 °F /  0.1 °C 30.35in /  1027.7hPa Calm     45% 0.00in /  0mm 504.00 W/m2
12:33 53.2 °F /  11.8 °C 32.4 °F /  0.2 °C 30.34in /  1027.3hPa Calm     45% 0.00in /  0mm 503.00 W/m2
12:38 53.4 °F /  11.9 °C 33.2 °F /  0.7 °C 30.34in /  1027.3hPa Calm   4.0mph /  6.4km/h 46% 0.00in /  0mm 499.00 W/m2
12:43 53.5 °F /  11.9 °C 33.2 °F /  0.7 °C 30.34in /  1027.3hPa Calm     46% 0.00in /  0mm 494.00 W/m2
12:48 53.5 °F /  11.9 °C 32.7 °F /  0.4 °C 30.34in /  1027.3hPa Calm   1.0mph /  1.6km/h 45% 0.00in /  0mm 489.00 W/m2
12:53 53.6 °F /  12 °C 31.7 °F /  -0.2 °C 30.34in /  1027.3hPa Calm     43% 0.00in /  0mm 487.00 W/m2
12:58 53.6 °F /  12 °C 32.2 °F /  0.1 °C 30.34in /  1027.3hPa Calm   1.0mph /  1.6km/h 44% 0.00in /  0mm 482.00 W/m2
13:03 53.7 °F /  12.1 °C 32.3 °F /  0.2 °C 30.33in /  1027hPa Calm   2.0mph /  3.2km/h 44% 0.00in /  0mm 478.00 W/m2
13:08 53.7 °F /  12.1 °C 34.0 °F /  1.1 °C 30.33in /  1027hPa Calm     47% 0.00in /  0mm 469.00 W/m2
13:13 53.7 °F /  12.1 °C 32.3 °F /  0.2 °C 30.33in /  1027hPa Calm     44% 0.00in /  0mm 462.00 W/m2
13:18 53.7 °F /  12.1 °C 33.4 °F /  0.8 °C 30.33in /  1027hPa Calm   1.0mph /  1.6km/h 46% 0.00in /  0mm 459.00 W/m2
13:23 53.6 °F /  12 °C 31.7 °F /  -0.2 °C 30.33in /  1027hPa Calm   1.0mph /  1.6km/h 43% 0.00in /  0mm 450.00 W/m2
13:28 53.6 °F /  12 °C 30.5 °F /  -0.8 °C 30.33in /  1027hPa Calm   2.0mph /  3.2km/h 41% 0.00in /  0mm 443.00 W/m2
13:33 53.8 °F /  12.1 °C 31.3 °F /  -0.4 °C 30.33in /  1027hPa Calm   2.0mph /  3.2km/h 42% 0.00in /  0mm 434.00 W/m2
13:38 53.8 °F /  12.1 °C 31.9 °F /  -0.1 °C 30.34in /  1027.3hPa NW 1.0mph /  1.6km/h 4.0mph /  6.4km/h 43% 0.00in /  0mm 427.00 W/m2
13:43 53.9 °F /  12.2 °C 31.9 °F /  -0.1 °C 30.34in /  1027.3hPa Calm   6.0mph /  9.7km/h 43% 0.00in /  0mm 420.00 W/m2
13:48 54.0 °F /  12.2 °C 32.0 °F /  0 °C 30.34in /  1027.3hPa Calm   3.0mph /  4.8km/h 43% 0.00in /  0mm 410.00 W/m2
13:53 54.0 °F /  12.2 °C 33.7 °F /  0.9 °C 30.33in /  1027hPa NNW 3.0mph /  4.8km/h 5.0mph /  8km/h 46% 0.00in /  0mm 401.00 W/m2
13:58 54.1 °F /  12.3 °C 34.9 °F /  1.6 °C 30.33in /  1027hPa Calm   5.0mph /  8km/h 48% 0.00in /  0mm 392.00 W/m2
14:03 54.1 °F /  12.3 °C 34.3 °F /  1.3 °C 30.33in /  1027hPa NW 1.0mph /  1.6km/h 2.0mph /  3.2km/h 47% 0.00in /  0mm 385.00 W/m2
14:08 54.1 °F /  12.3 °C 33.8 °F /  1 °C 30.34in /  1027.3hPa Calm     46% 0.00in /  0mm 381.00 W/m2
14:13 54.2 °F /  12.3 °C 33.3 °F /  0.7 °C 30.33in /  1027hPa Calm     45% 0.00in /  0mm 380.00 W/m2
14:18 54.2 °F /  12.3 °C 34.4 °F /  1.3 °C 30.34in /  1027.3hPa Calm     47% 0.00in /  0mm 374.00 W/m2
14:23 54.2 °F /  12.3 °C 34.4 °F /  1.3 °C 30.34in /  1027.3hPa Calm     47% 0.00in /  0mm 357.00 W/m2
14:28 54.1 °F /  12.3 °C 35.4 °F /  1.9 °C 30.34in /  1027.3hPa Calm   2.0mph /  3.2km/h 49% 0.00in /  0mm 274.00 W/m2
14:33 54.1 °F /  12.3 °C 36.9 °F /  2.7 °C 30.34in /  1027.3hPa Calm   4.0mph /  6.4km/h 52% 0.00in /  0mm 306.00 W/m2
14:38 54.0 °F /  12.2 °C 36.3 °F /  2.4 °C 30.34in /  1027.3hPa Calm     51% 0.00in /  0mm 311.00 W/m2
14:43 54.0 °F /  12.2 °C 37.3 °F /  2.9 °C 30.34in /  1027.3hPa Calm     53% 0.00in /  0mm 299.00 W/m2
14:49 53.9 °F /  12.2 °C 36.7 °F /  2.6 °C 30.35in /  1027.7hPa Calm     52% 0.00in /  0mm 283.00 W/m2
14:54 53.9 °F /  12.2 °C 37.2 °F /  2.9 °C 30.35in /  1027.7hPa Calm     53% 0.00in /  0mm 283.00 W/m2
14:59 53.8 °F /  12.1 °C 36.6 °F /  2.6 °C 30.35in /  1027.7hPa Calm     52% 0.00in /  0mm 272.00 W/m2
15:04 53.7 °F /  12.1 °C 37.0 °F /  2.8 °C 30.34in /  1027.3hPa Calm     53% 0.00in /  0mm 230.00 W/m2
15:09 53.8 °F /  12.1 °C 37.6 °F /  3.1 °C 30.34in /  1027.3hPa Calm     54% 0.00in /  0mm 181.00 W/m2
15:14 53.8 °F /  12.1 °C 38.5 °F /  3.6 °C 30.34in /  1027.3hPa Calm   4.0mph /  6.4km/h 56% 0.00in /  0mm 195.00 W/m2
15:19 53.9 °F /  12.2 °C 39.5 °F /  4.2 °C 30.34in /  1027.3hPa ENE 6.0mph /  9.7km/h 15.0mph /  24.1km/h 58% 0.00in /  0mm 197.00 W/m2
15:24 53.8 °F /  12.1 °C 40.3 °F /  4.6 °C 30.34in /  1027.3hPa East 5.0mph /  8km/h 10.0mph /  16.1km/h 60% 0.00in /  0mm 93.00 W/m2
15:29 53.7 °F /  12.1 °C 38.8 °F /  3.8 °C 30.34in /  1027.3hPa East 4.0mph /  6.4km/h 13.0mph /  20.9km/h 57% 0.00in /  0mm 49.00 W/m2
15:34 53.7 °F /  12.1 °C 39.3 °F /  4.1 °C 30.34in /  1027.3hPa ENE 1.0mph /  1.6km/h 10.0mph /  16.1km/h 58% 0.00in /  0mm 95.00 W/m2
15:39 53.6 °F /  12 °C 37.4 °F /  3 °C 30.34in /  1027.3hPa Calm   10.0mph /  16.1km/h 54% 0.00in /  0mm 132.00 W/m2
15:44 53.6 °F /  12 °C 37.8 °F /  3.2 °C 30.34in /  1027.3hPa ENE 7.0mph /  11.3km/h 11.0mph /  17.7km/h 55% 0.00in /  0mm 111.00 W/m2
15:49 53.4 °F /  11.9 °C 39.0 °F /  3.9 °C 30.34in /  1027.3hPa Calm   10.0mph /  16.1km/h 58% 0.00in /  0mm 83.00 W/m2
15:54 53.1 °F /  11.7 °C 39.2 °F /  4 °C 30.34in /  1027.3hPa ENE 4.0mph /  6.4km/h 13.0mph /  20.9km/h 59% 0.00in /  0mm 74.00 W/m2
15:59 52.8 °F /  11.6 °C 38.9 °F /  3.8 °C 30.34in /  1027.3hPa ENE 10.0mph /  16.1km/h 16.0mph /  25.7km/h 59% 0.00in /  0mm 62.00 W/m2
16:04 52.5 °F /  11.4 °C 37.3 °F /  2.9 °C 30.34in /  1027.3hPa Calm   17.0mph /  27.4km/h 56% 0.00in /  0mm 49.00 W/m2
16:09 52.4 °F /  11.3 °C 35.3 °F /  1.8 °C 30.34in /  1027.3hPa ENE 4.0mph /  6.4km/h 10.0mph /  16.1km/h 52% 0.00in /  0mm 35.00 W/m2
16:14 52.3 °F /  11.3 °C 35.2 °F /  1.8 °C 30.34in /  1027.3hPa East 11.0mph /  17.7km/h 14.0mph /  22.5km/h 52% 0.00in /  0mm 26.00 W/m2
16:19 52.3 °F /  11.3 °C 35.7 °F /  2.1 °C 30.34in /  1027.3hPa East 2.0mph /  3.2km/h 15.0mph /  24.1km/h 53% 0.00in /  0mm 18.00 W/m2
16:24 52.4 °F /  11.3 °C 34.3 °F /  1.3 °C 30.34in /  1027.3hPa ENE 2.0mph /  3.2km/h 12.0mph /  19.3km/h 50% 0.00in /  0mm 14.00 W/m2
16:29 52.5 °F /  11.4 °C 32.9 °F /  0.5 °C 30.35in /  1027.7hPa Calm   10.0mph /  16.1km/h 47% 0.00in /  0mm 12.00 W/m2
16:30 52.5 °F /  11.4 °C 32.9 °F /  0.5 °C 30.35in /  1027.7hPa East 8.0mph /  12.9km/h 14.0mph /  22.5km/h 47% 0.00in /  0mm 11.00 W/m2
16:35 52.6 °F /  11.4 °C 34.0 °F /  1.1 °C 30.35in /  1027.7hPa East 3.0mph /  4.8km/h 12.0mph /  19.3km/h 49% 0.00in /  0mm 9.00 W/m2
16:40 52.7 °F /  11.5 °C 33.6 °F /  0.9 °C 30.35in /  1027.7hPa NE 8.0mph /  12.9km/h 21.0mph /  33.8km/h 48% 0.00in /  0mm 7.00 W/m2
16:41 52.7 °F /  11.5 °C 32.5 °F /  0.3 °C 30.35in /  1027.7hPa ENE 6.0mph /  9.7km/h 13.0mph /  20.9km/h 46% 0.00in /  0mm 7.00 W/m2
16:46 52.8 °F /  11.6 °C 31.5 °F /  -0.3 °C 30.35in /  1027.7hPa ENE 1.0mph /  1.6km/h 12.0mph /  19.3km/h 44% 0.00in /  0mm 5.00 W/m2
16:51 53.2 °F /  11.8 °C 31.9 °F /  -0.1 °C 30.35in /  1027.7hPa East 10.0mph /  16.1km/h 15.0mph /  24.1km/h 44% 0.00in /  0mm 0.00 W/m2
16:56 53.4 °F /  11.9 °C 31.5 °F /  -0.3 °C 30.35in /  1027.7hPa East 2.0mph /  3.2km/h 13.0mph /  20.9km/h 43% 0.00in /  0mm 0.00 W/m2
17:02 53.3 °F /  11.8 °C 31.4 °F /  -0.3 °C 30.35in /  1027.7hPa ENE 1.0mph /  1.6km/h 3.0mph /  4.8km/h 43% 0.00in /  0mm 0.00 W/m2
17:07 53.3 °F /  11.8 °C 31.4 °F /  -0.3 °C 30.35in /  1027.7hPa East 4.0mph /  6.4km/h 11.0mph /  17.7km/h 43% 0.00in /  0mm 0.00 W/m2
17:12 53.2 °F /  11.8 °C 29.5 °F /  -1.4 °C 30.36in /  1028hPa East 14.0mph /  22.5km/h 15.0mph /  24.1km/h 40% 0.00in /  0mm 0.00 W/m2
17:17 53.2 °F /  11.8 °C 29.5 °F /  -1.4 °C 30.35in /  1027.7hPa Calm   5.0mph /  8km/h 40% 0.00in /  0mm 0.00 W/m2
17:22 53.2 °F /  11.8 °C 29.5 °F /  -1.4 °C 30.36in /  1028hPa ESE 6.0mph /  9.7km/h 7.0mph /  11.3km/h 40% 0.00in /  0mm 0.00 W/m2
17:27 53.2 °F /  11.8 °C 29.5 °F /  -1.4 °C 30.36in /  1028hPa Calm   12.0mph /  19.3km/h 40% 0.00in /  0mm 0.00 W/m2
17:32 53.1 °F /  11.7 °C 27.5 °F /  -2.5 °C 30.36in /  1028hPa ESE 6.0mph /  9.7km/h 15.0mph /  24.1km/h 37% 0.00in /  0mm 0.00 W/m2
17:37 53.1 °F /  11.7 °C 29.4 °F /  -1.4 °C 30.36in /  1028hPa East 7.0mph /  11.3km/h 12.0mph /  19.3km/h 40% 0.00in /  0mm 0.00 W/m2
17:42 53.2 °F /  11.8 °C 26.3 °F /  -3.2 °C 30.36in /  1028hPa Calm   19.0mph /  30.6km/h 35% 0.00in /  0mm 0.00 W/m2
17:47 53.4 °F /  11.9 °C 25.0 °F /  -3.9 °C 30.36in /  1028hPa ENE 1.0mph /  1.6km/h 13.0mph /  20.9km/h 33% 0.00in /  0mm 0.00 W/m2
17:52 53.8 °F /  12.1 °C 26.1 °F /  -3.3 °C 30.36in /  1028hPa ENE 3.0mph /  4.8km/h 17.0mph /  27.4km/h 34% 0.00in /  0mm 0.00 W/m2
17:57 54.3 °F /  12.4 °C 26.5 °F /  -3.1 °C 30.35in /  1027.7hPa East 5.0mph /  8km/h 25.0mph /  40.2km/h 34% 0.00in /  0mm 0.00 W/m2
18:02 54.6 °F /  12.6 °C 25.4 °F /  -3.7 °C 30.35in /  1027.7hPa ESE 9.0mph /  14.5km/h 28.0mph /  45.1km/h 32% 0.00in /  0mm 0.00 W/m2
18:07 54.7 °F /  12.6 °C 24.7 °F /  -4.1 °C 30.35in /  1027.7hPa Calm   20.0mph /  32.2km/h 31% 0.00in /  0mm 0.00 W/m2
18:12 54.8 °F /  12.7 °C 24.0 °F /  -4.4 °C 30.36in /  1028hPa ENE 11.0mph /  17.7km/h 23.0mph /  37km/h 30% 0.00in /  0mm 0.00 W/m2
18:17 55.1 °F /  12.8 °C 24.2 °F /  -4.3 °C 30.36in /  1028hPa SE 7.0mph /  11.3km/h 24.0mph /  38.6km/h 30% 0.00in /  0mm 0.00 W/m2
18:22 55.2 °F /  12.9 °C 25.1 °F /  -3.8 °C 30.36in /  1028hPa ESE 9.0mph /  14.5km/h 22.0mph /  35.4km/h 31% 0.00in /  0mm 0.00 W/m2
18:27 55.4 °F /  13 °C 24.5 °F /  -4.2 °C 30.36in /  1028hPa East 11.0mph /  17.7km/h 15.0mph /  24.1km/h 30% 0.00in /  0mm 0.00 W/m2
18:31 55.4 °F /  13 °C 23.7 °F /  -4.6 °C 30.36in /  1028hPa ESE 13.0mph /  20.9km/h 17.0mph /  27.4km/h 29% 0.00in /  0mm 0.00 W/m2
18:36 55.2 °F /  12.9 °C 25.1 °F /  -3.8 °C 30.37in /  1028.3hPa SE 5.0mph /  8km/h 11.0mph /  17.7km/h 31% 0.00in /  0mm 0.00 W/m2
18:41 54.8 °F /  12.7 °C 24.0 °F /  -4.4 °C 30.37in /  1028.3hPa Calm   22.0mph /  35.4km/h 30% 0.00in /  0mm 0.00 W/m2
18:46 54.5 °F /  12.5 °C 25.3 °F /  -3.7 °C 30.37in /  1028.3hPa Calm   14.0mph /  22.5km/h 32% 0.00in /  0mm 0.00 W/m2
18:51 54.2 °F /  12.3 °C 23.5 °F /  -4.7 °C 30.37in /  1028.3hPa SE 9.0mph /  14.5km/h 16.0mph /  25.7km/h 30% 0.00in /  0mm 0.00 W/m2
18:57 54.1 °F /  12.3 °C 22.6 °F /  -5.2 °C 30.38in /  1028.7hPa Calm   8.0mph /  12.9km/h 29% 0.00in /  0mm 0.00 W/m2
19:02 53.9 °F /  12.2 °C 24.0 °F /  -4.4 °C 30.38in /  1028.7hPa Calm   1.0mph /  1.6km/h 31% 0.00in /  0mm 0.00 W/m2
19:07 53.7 °F /  12.1 °C 24.6 °F /  -4.1 °C 30.38in /  1028.7hPa Calm     32% 0.00in /  0mm 0.00 W/m2
19:13 53.3 °F /  11.8 °C 25.0 °F /  -3.9 °C 30.38in /  1028.7hPa Calm   2.0mph /  3.2km/h 33% 0.00in /  0mm 0.00 W/m2
19:18 53.0 °F /  11.7 °C 24.0 °F /  -4.4 °C 30.38in /  1028.7hPa Calm     32% 0.00in /  0mm 5.00 W/m2
19:23 52.6 °F /  11.4 °C 24.3 °F /  -4.3 °C 30.38in /  1028.7hPa Calm     33% 0.00in /  0mm 0.00 W/m2
19:24 52.5 °F /  11.4 °C 25.7 °F /  -3.5 °C 30.38in /  1028.7hPa Calm   1.0mph /  1.6km/h 35% 0.00in /  0mm 0.00 W/m2
19:29 52.2 °F /  11.2 °C 24.7 °F /  -4.1 °C 30.38in /  1028.7hPa Calm   1.0mph /  1.6km/h 34% 0.00in /  0mm 0.00 W/m2
19:35 51.9 °F /  11.1 °C 25.1 °F /  -3.8 °C 30.38in /  1028.7hPa Calm   1.0mph /  1.6km/h 35% 0.00in /  0mm 0.00 W/m2
19:39 51.5 °F /  10.8 °C 25.5 °F /  -3.6 °C 30.38in /  1028.7hPa Calm     36% 0.00in /  0mm 0.00 W/m2
19:44 51.3 °F /  10.7 °C 25.3 °F /  -3.7 °C 30.38in /  1028.7hPa Calm     36% 0.00in /  0mm 0.00 W/m2
19:49 50.8 °F /  10.4 °C 24.1 °F /  -4.4 °C 30.38in /  1028.7hPa Calm   2.0mph /  3.2km/h 35% 0.00in /  0mm 5.00 W/m2
19:54 50.4 °F /  10.2 °C 26.4 °F /  -3.1 °C 30.39in /  1029hPa Calm   1.0mph /  1.6km/h 39% 0.00in /  0mm 0.00 W/m2
19:59 50.1 °F /  10.1 °C 24.2 °F /  -4.3 °C 30.39in /  1029hPa Calm     36% 0.00in /  0mm 0.00 W/m2
20:05 49.9 °F /  9.9 °C 23.4 °F /  -4.8 °C 30.39in /  1029hPa Calm     35% 0.00in /  0mm 0.00 W/m2
20:10 49.7 °F /  9.8 °C 23.2 °F /  -4.9 °C 30.39in /  1029hPa Calm     35% 0.00in /  0mm 0.00 W/m2
20:15 49.6 °F /  9.8 °C 22.4 °F /  -5.3 °C 30.40in /  1029.3hPa Calm     34% 0.00in /  0mm 0.00 W/m2
20:20 49.5 °F /  9.7 °C 22.3 °F /  -5.4 °C 30.40in /  1029.3hPa Calm     34% 0.00in /  0mm 0.00 W/m2
20:25 49.5 °F /  9.7 °C 22.3 °F /  -5.4 °C 30.40in /  1029.3hPa Calm     34% 0.00in /  0mm 0.00 W/m2
20:30 49.4 °F /  9.7 °C 23.6 °F /  -4.7 °C 30.40in /  1029.3hPa Calm     36% 0.00in /  0mm 0.00 W/m2
20:35 49.3 °F /  9.6 °C 22.1 °F /  -5.5 °C 30.40in /  1029.3hPa Calm     34% 0.00in /  0mm 0.00 W/m2
20:40 49.3 °F /  9.6 °C 22.8 °F /  -5.1 °C 30.40in /  1029.3hPa East 1.0mph /  1.6km/h 2.0mph /  3.2km/h 35% 0.00in /  0mm 0.00 W/m2
20:45 49.4 °F /  9.7 °C 22.9 °F /  -5.1 °C 30.40in /  1029.3hPa Calm   4.0mph /  6.4km/h 35% 0.00in /  0mm 0.00 W/m2
20:50 49.4 °F /  9.7 °C 22.9 °F /  -5.1 °C 30.40in /  1029.3hPa East 2.0mph /  3.2km/h 4.0mph /  6.4km/h 35% 0.00in /  0mm 0.00 W/m2
20:55 49.4 °F /  9.7 °C 21.5 °F /  -5.8 °C 30.41in /  1029.7hPa Calm   5.0mph /  8km/h 33% 0.00in /  0mm 0.00 W/m2
21:00 49.5 °F /  9.7 °C 23.0 °F /  -5 °C 30.41in /  1029.7hPa Calm     35% 0.00in /  0mm 0.00 W/m2
21:05 49.6 °F /  9.8 °C 21.7 °F /  -5.7 °C 30.41in /  1029.7hPa Calm   2.0mph /  3.2km/h 33% 0.00in /  0mm 0.00 W/m2
21:10 49.8 °F /  9.9 °C 22.6 °F /  -5.2 °C 30.41in /  1029.7hPa Calm   2.0mph /  3.2km/h 34% 0.00in /  0mm 0.00 W/m2
21:15 49.9 °F /  9.9 °C 20.5 °F /  -6.4 °C 30.41in /  1029.7hPa Calm     31% 0.00in /  0mm 0.00 W/m2
21:20 50.0 °F /  10 °C 22.0 °F /  -5.6 °C 30.41in /  1029.7hPa Calm   2.0mph /  3.2km/h 33% 0.00in /  0mm 0.00 W/m2
21:25 49.9 °F /  9.9 °C 24.0 °F /  -4.4 °C 30.41in /  1029.7hPa Calm     36% 0.00in /  0mm 0.00 W/m2
21:30 49.9 °F /  9.9 °C 22.7 °F /  -5.2 °C 30.41in /  1029.7hPa Calm   5.0mph /  8km/h 34% 0.00in /  0mm 0.00 W/m2
21:35 49.7 °F /  9.8 °C 23.9 °F /  -4.5 °C 30.41in /  1029.7hPa East 1.0mph /  1.6km/h 2.0mph /  3.2km/h 36% 0.00in /  0mm 0.00 W/m2
21:40 49.6 °F /  9.8 °C 23.8 °F /  -4.6 °C 30.41in /  1029.7hPa East 4.0mph /  6.4km/h 6.0mph /  9.7km/h 36% 0.00in /  0mm 0.00 W/m2
21:45 49.5 °F /  9.7 °C 23.7 °F /  -4.6 °C 30.42in /  1030hPa Calm   6.0mph /  9.7km/h 36% 0.00in /  0mm 0.00 W/m2
21:50 49.4 °F /  9.7 °C 24.2 °F /  -4.3 °C 30.42in /  1030hPa East 1.0mph /  1.6km/h 7.0mph /  11.3km/h 37% 0.00in /  0mm 0.00 W/m2
21:55 49.3 °F /  9.6 °C 24.1 °F /  -4.4 °C 30.42in /  1030hPa ESE 4.0mph /  6.4km/h 9.0mph /  14.5km/h 37% 0.00in /  0mm 0.00 W/m2
22:00 49.3 °F /  9.6 °C 23.5 °F /  -4.7 °C 30.41in /  1029.7hPa East 1.0mph /  1.6km/h 5.0mph /  8km/h 36% 0.00in /  0mm 0.00 W/m2
22:05 49.4 °F /  9.7 °C 22.9 °F /  -5.1 °C 30.41in /  1029.7hPa Calm   15.0mph /  24.1km/h 35% 0.00in /  0mm 0.00 W/m2
22:10 49.5 °F /  9.7 °C 23.7 °F /  -4.6 °C 30.42in /  1030hPa ESE 8.0mph /  12.9km/h 14.0mph /  22.5km/h 36% 0.00in /  0mm 0.00 W/m2
22:15 49.7 °F /  9.8 °C 23.9 °F /  -4.5 °C 30.42in /  1030hPa East 11.0mph /  17.7km/h 11.0mph /  17.7km/h 36% 0.00in /  0mm 0.00 W/m2
22:20 49.9 °F /  9.9 °C 24.0 °F /  -4.4 °C 30.42in /  1030hPa East 1.0mph /  1.6km/h 13.0mph /  20.9km/h 36% 0.00in /  0mm 0.00 W/m2
22:25 50.1 °F /  10.1 °C 24.2 °F /  -4.3 °C 30.42in /  1030hPa ESE 1.0mph /  1.6km/h 14.0mph /  22.5km/h 36% 0.00in /  0mm 0.00 W/m2
22:30 50.3 °F /  10.2 °C 24.4 °F /  -4.2 °C 30.42in /  1030hPa ESE 4.0mph /  6.4km/h 15.0mph /  24.1km/h 36% 0.00in /  0mm 0.00 W/m2
22:35 50.4 °F /  10.2 °C 23.1 °F /  -4.9 °C 30.42in /  1030hPa Calm   11.0mph /  17.7km/h 34% 0.00in /  0mm 0.00 W/m2
22:40 50.5 °F /  10.3 °C 23.9 °F /  -4.5 °C 30.42in /  1030hPa East 1.0mph /  1.6km/h 13.0mph /  20.9km/h 35% 0.00in /  0mm 0.00 W/m2
22:45 50.8 °F /  10.4 °C 23.5 °F /  -4.7 °C 30.42in /  1030hPa ESE 11.0mph /  17.7km/h 15.0mph /  24.1km/h 34% 0.00in /  0mm 0.00 W/m2
22:50 50.9 °F /  10.5 °C 24.2 °F /  -4.3 °C 30.42in /  1030hPa East 13.0mph /  20.9km/h 19.0mph /  30.6km/h 35% 0.00in /  0mm 0.00 W/m2
22:55 51.0 °F /  10.6 °C 22.2 °F /  -5.4 °C 30.42in /  1030hPa East 9.0mph /  14.5km/h 15.0mph /  24.1km/h 32% 0.00in /  0mm 0.00 W/m2
23:00 51.2 °F /  10.7 °C 23.1 °F /  -4.9 °C 30.42in /  1030hPa East 2.0mph /  3.2km/h 13.0mph /  20.9km/h 33% 0.00in /  0mm 0.00 W/m2
23:05 51.4 °F /  10.8 °C 23.3 °F /  -4.8 °C 30.42in /  1030hPa ESE 7.0mph /  11.3km/h 7.0mph /  11.3km/h 33% 0.00in /  0mm 0.00 W/m2
23:10 51.4 °F /  10.8 °C 24.0 °F /  -4.4 °C 30.42in /  1030hPa ESE 1.0mph /  1.6km/h 11.0mph /  17.7km/h 34% 0.00in /  0mm 0.00 W/m2
23:15 51.5 °F /  10.8 °C 23.4 °F /  -4.8 °C 30.42in /  1030hPa East 5.0mph /  8km/h 19.0mph /  30.6km/h 33% 0.00in /  0mm 0.00 W/m2
23:20 51.4 °F /  10.8 °C 22.5 °F /  -5.3 °C 30.42in /  1030hPa ESE 8.0mph /  12.9km/h 12.0mph /  19.3km/h 32% 0.00in /  0mm 0.00 W/m2
23:25 51.4 °F /  10.8 °C 23.3 °F /  -4.8 °C 30.42in /  1030hPa East 9.0mph /  14.5km/h 18.0mph /  29km/h 33% 0.00in /  0mm 0.00 W/m2
23:30 51.4 °F /  10.8 °C 21.8 °F /  -5.7 °C 30.42in /  1030hPa ESE 5.0mph /  8km/h 15.0mph /  24.1km/h 31% 0.00in /  0mm 0.00 W/m2
23:35 51.4 °F /  10.8 °C 23.3 °F /  -4.8 °C 30.42in /  1030hPa Calm   14.0mph /  22.5km/h 33% 0.00in /  0mm 0.00 W/m2
23:40 51.4 °F /  10.8 °C 22.5 °F /  -5.3 °C 30.41in /  1029.7hPa East 2.0mph /  3.2km/h 2.0mph /  3.2km/h 32% 0.00in /  0mm 0.00 W/m2
23:45 51.5 °F /  10.8 °C 22.6 °F /  -5.2 °C 30.41in /  1029.7hPa ESE 1.0mph /  1.6km/h 4.0mph /  6.4km/h 32% 0.00in /  0mm 0.00 W/m2
23:50 51.6 °F /  10.9 °C 23.5 °F /  -4.7 °C 30.41in /  1029.7hPa ESE 5.0mph /  8km/h 9.0mph /  14.5km/h 33% 0.00in /  0mm 0.00 W/m2
23:55 51.7 °F /  10.9 °C 22.1 °F /  -5.5 °C 30.41in /  1029.7hPa ESE 4.0mph /  6.4km/h 11.0mph /  17.7km/h 31% 0.00in /  0mm 0.00 W/m2
Foresthill Weather
 WU-history PHP script courtesy of   Juneau County Weather.
powered by Cumulus v1.9.3 (1059)
Ambient Weather VWS v14.00
Top Contact Website Map Copyright © 2007 - 2018 Foresthillweather.com Never base important decisions on this or any weather information obtained from the Internet